sensor_id;sensor_type;location;lat;lon;timestamp;P1;durP1;ratioP1;P2;durP2;ratioP2
69754;SDS011;57023;52.218;5.158;2022-08-21T00:00:39;13.60;;;6.80;;
69754;SDS011;57023;52.218;5.158;2022-08-21T00:03:06;9.10;;;6.20;;
69754;SDS011;57023;52.218;5.158;2022-08-21T00:07:58;9.80;;;6.23;;
69754;SDS011;57023;52.218;5.158;2022-08-21T00:10:24;10.90;;;6.30;;
69754;SDS011;57023;52.218;5.158;2022-08-21T00:12:49;11.80;;;5.60;;
69754;SDS011;57023;52.218;5.158;2022-08-21T00:15:18;11.20;;;6.00;;
69754;SDS011;57023;52.218;5.158;2022-08-21T00:17:45;11.88;;;7.07;;
69754;SDS011;57023;52.218;5.158;2022-08-21T00:20:11;13.60;;;8.10;;
69754;SDS011;57023;52.218;5.158;2022-08-21T00:22:37;11.55;;;7.10;;
69754;SDS011;57023;52.218;5.158;2022-08-21T00:25:03;12.02;;;6.43;;
69754;SDS011;57023;52.218;5.158;2022-08-21T00:27:30;10.73;;;6.47;;
69754;SDS011;57023;52.218;5.158;2022-08-21T00:29:56;12.65;;;6.22;;
69754;SDS011;57023;52.218;5.158;2022-08-21T00:32:22;10.23;;;6.18;;
69754;SDS011;57023;52.218;5.158;2022-08-21T00:34:49;10.75;;;5.82;;
69754;SDS011;57023;52.218;5.158;2022-08-21T00:37:14;12.75;;;6.28;;
69754;SDS011;57023;52.218;5.158;2022-08-21T00:39:40;10.35;;;5.55;;
69754;SDS011;57023;52.218;5.158;2022-08-21T00:42:05;11.23;;;6.10;;
69754;SDS011;57023;52.218;5.158;2022-08-21T00:44:30;9.43;;;5.60;;
69754;SDS011;57023;52.218;5.158;2022-08-21T00:46:56;11.15;;;5.75;;
69754;SDS011;57023;52.218;5.158;2022-08-21T00:49:22;13.13;;;6.18;;
69754;SDS011;57023;52.218;5.158;2022-08-21T00:51:55;11.73;;;6.35;;
69754;SDS011;57023;52.218;5.158;2022-08-21T00:54:24;10.25;;;6.03;;
69754;SDS011;57023;52.218;5.158;2022-08-21T00:56:51;10.73;;;5.90;;
69754;SDS011;57023;52.218;5.158;2022-08-21T00:59:19;10.63;;;6.32;;
69754;SDS011;57023;52.218;5.158;2022-08-21T01:01:46;11.93;;;6.65;;
69754;SDS011;57023;52.218;5.158;2022-08-21T01:04:11;12.73;;;6.10;;
69754;SDS011;57023;52.218;5.158;2022-08-21T01:06:37;13.52;;;6.30;;
69754;SDS011;57023;52.218;5.158;2022-08-21T01:09:02;12.68;;;6.43;;
69754;SDS011;57023;52.218;5.158;2022-08-21T01:11:28;15.32;;;6.63;;
69754;SDS011;57023;52.218;5.158;2022-08-21T01:13:53;11.98;;;6.97;;
69754;SDS011;57023;52.218;5.158;2022-08-21T01:16:20;12.48;;;6.45;;
69754;SDS011;57023;52.218;5.158;2022-08-21T01:18:46;10.57;;;6.32;;
69754;SDS011;57023;52.218;5.158;2022-08-21T01:21:17;9.32;;;6.00;;
69754;SDS011;57023;52.218;5.158;2022-08-21T01:23:45;10.77;;;6.50;;
69754;SDS011;57023;52.218;5.158;2022-08-21T01:26:12;11.13;;;6.35;;
69754;SDS011;57023;52.218;5.158;2022-08-21T01:28:42;11.95;;;6.47;;
69754;SDS011;57023;52.218;5.158;2022-08-21T01:31:09;12.52;;;6.47;;
69754;SDS011;57023;52.218;5.158;2022-08-21T01:33:37;11.80;;;6.63;;
69754;SDS011;57023;52.218;5.158;2022-08-21T01:36:02;10.32;;;6.28;;
69754;SDS011;57023;52.218;5.158;2022-08-21T01:38:28;12.73;;;6.55;;
69754;SDS011;57023;52.218;5.158;2022-08-21T01:40:53;12.93;;;6.47;;
69754;SDS011;57023;52.218;5.158;2022-08-21T01:43:19;10.65;;;6.38;;
69754;SDS011;57023;52.218;5.158;2022-08-21T01:45:44;11.15;;;6.40;;
69754;SDS011;57023;52.218;5.158;2022-08-21T01:48:09;11.43;;;5.93;;
69754;SDS011;57023;52.218;5.158;2022-08-21T01:50:35;13.05;;;6.55;;
69754;SDS011;57023;52.218;5.158;2022-08-21T01:53:00;10.90;;;6.30;;
69754;SDS011;57023;52.218;5.158;2022-08-21T01:55:26;10.43;;;6.28;;
69754;SDS011;57023;52.218;5.158;2022-08-21T01:57:51;11.68;;;6.40;;
69754;SDS011;57023;52.218;5.158;2022-08-21T02:00:20;12.20;;;6.60;;
69754;SDS011;57023;52.218;5.158;2022-08-21T02:02:47;13.02;;;6.57;;
69754;SDS011;57023;52.218;5.158;2022-08-21T02:05:13;10.50;;;6.80;;
69754;SDS011;57023;52.218;5.158;2022-08-21T02:07:40;11.40;;;6.40;;
69754;SDS011;57023;52.218;5.158;2022-08-21T02:10:12;14.55;;;6.78;;
69754;SDS011;57023;52.218;5.158;2022-08-21T02:12:42;10.63;;;6.70;;
69754;SDS011;57023;52.218;5.158;2022-08-21T02:15:07;10.77;;;6.30;;
69754;SDS011;57023;52.218;5.158;2022-08-21T02:17:40;14.55;;;6.47;;
69754;SDS011;57023;52.218;5.158;2022-08-21T02:20:18;15.68;;;6.78;;
69754;SDS011;57023;52.218;5.158;2022-08-21T02:22:55;14.50;;;6.13;;
69754;SDS011;57023;52.218;5.158;2022-08-21T02:25:21;11.70;;;6.75;;
69754;SDS011;57023;52.218;5.158;2022-08-21T02:27:47;10.18;;;6.43;;
69754;SDS011;57023;52.218;5.158;2022-08-21T02:30:14;12.30;;;6.43;;
69754;SDS011;57023;52.218;5.158;2022-08-21T02:32:46;11.80;;;6.65;;
69754;SDS011;57023;52.218;5.158;2022-08-21T02:35:11;10.05;;;6.20;;
69754;SDS011;57023;52.218;5.158;2022-08-21T02:37:51;16.23;;;6.22;;
69754;SDS011;57023;52.218;5.158;2022-08-21T02:40:19;11.45;;;6.60;;
69754;SDS011;57023;52.218;5.158;2022-08-21T02:42:45;13.90;;;6.32;;
69754;SDS011;57023;52.218;5.158;2022-08-21T02:45:12;12.52;;;7.18;;
69754;SDS011;57023;52.218;5.158;2022-08-21T02:47:38;11.38;;;6.82;;
69754;SDS011;57023;52.218;5.158;2022-08-21T02:50:04;11.90;;;6.88;;
69754;SDS011;57023;52.218;5.158;2022-08-21T02:52:30;12.85;;;6.47;;
69754;SDS011;57023;52.218;5.158;2022-08-21T02:54:56;14.75;;;7.15;;
69754;SDS011;57023;52.218;5.158;2022-08-21T02:57:21;13.90;;;7.35;;
69754;SDS011;57023;52.218;5.158;2022-08-21T02:59:46;11.52;;;7.10;;
69754;SDS011;57023;52.218;5.158;2022-08-21T03:02:12;12.48;;;6.95;;
69754;SDS011;57023;52.218;5.158;2022-08-21T03:04:37;12.27;;;6.72;;
69754;SDS011;57023;52.218;5.158;2022-08-21T03:07:02;11.90;;;6.90;;
69754;SDS011;57023;52.218;5.158;2022-08-21T03:09:28;13.57;;;6.95;;
69754;SDS011;57023;52.218;5.158;2022-08-21T03:11:53;13.35;;;7.30;;
69754;SDS011;57023;52.218;5.158;2022-08-21T03:14:19;11.93;;;6.43;;
69754;SDS011;57023;52.218;5.158;2022-08-21T03:16:44;15.27;;;6.88;;
69754;SDS011;57023;52.218;5.158;2022-08-21T03:19:09;12.80;;;7.07;;
69754;SDS011;57023;52.218;5.158;2022-08-21T03:21:35;13.32;;;6.93;;
69754;SDS011;57023;52.218;5.158;2022-08-21T03:24:00;12.95;;;6.95;;
69754;SDS011;57023;52.218;5.158;2022-08-21T03:26:26;15.32;;;6.90;;
69754;SDS011;57023;52.218;5.158;2022-08-21T03:28:51;12.77;;;7.10;;
69754;SDS011;57023;52.218;5.158;2022-08-21T03:31:16;12.68;;;7.05;;
69754;SDS011;57023;52.218;5.158;2022-08-21T03:33:42;11.85;;;6.80;;
69754;SDS011;57023;52.218;5.158;2022-08-21T03:36:08;14.65;;;7.43;;
69754;SDS011;57023;52.218;5.158;2022-08-21T03:38:35;13.50;;;7.27;;
69754;SDS011;57023;52.218;5.158;2022-08-21T03:41:02;12.60;;;6.97;;
69754;SDS011;57023;52.218;5.158;2022-08-21T03:43:28;15.07;;;6.85;;
69754;SDS011;57023;52.218;5.158;2022-08-21T03:45:53;14.43;;;7.10;;
69754;SDS011;57023;52.218;5.158;2022-08-21T03:48:19;12.95;;;7.07;;
69754;SDS011;57023;52.218;5.158;2022-08-21T03:50:44;12.63;;;7.22;;
69754;SDS011;57023;52.218;5.158;2022-08-21T03:53:13;13.30;;;7.15;;
69754;SDS011;57023;52.218;5.158;2022-08-21T03:55:39;11.13;;;7.05;;
69754;SDS011;57023;52.218;5.158;2022-08-21T03:58:04;11.63;;;6.70;;
69754;SDS011;57023;52.218;5.158;2022-08-21T04:00:30;13.85;;;7.07;;
69754;SDS011;57023;52.218;5.158;2022-08-21T04:02:56;16.60;;;7.27;;
69754;SDS011;57023;52.218;5.158;2022-08-21T04:05:22;14.60;;;6.80;;
69754;SDS011;57023;52.218;5.158;2022-08-21T04:07:54;13.73;;;7.03;;
69754;SDS011;57023;52.218;5.158;2022-08-21T04:12:45;16.47;;;7.00;;
69754;SDS011;57023;52.218;5.158;2022-08-21T04:15:11;12.90;;;6.50;;
69754;SDS011;57023;52.218;5.158;2022-08-21T04:17:37;13.40;;;7.20;;
69754;SDS011;57023;52.218;5.158;2022-08-21T04:20:03;13.50;;;7.00;;
69754;SDS011;57023;52.218;5.158;2022-08-21T04:22:29;10.65;;;6.90;;
69754;SDS011;57023;52.218;5.158;2022-08-21T04:24:54;11.63;;;7.40;;
69754;SDS011;57023;52.218;5.158;2022-08-21T04:27:19;17.20;;;7.40;;
69754;SDS011;57023;52.218;5.158;2022-08-21T04:29:45;12.65;;;6.90;;
69754;SDS011;57023;52.218;5.158;2022-08-21T04:32:10;10.38;;;6.80;;
69754;SDS011;57023;52.218;5.158;2022-08-21T04:34:35;13.43;;;7.40;;
69754;SDS011;57023;52.218;5.158;2022-08-21T04:37:01;14.25;;;7.15;;
69754;SDS011;57023;52.218;5.158;2022-08-21T04:39:26;11.68;;;7.38;;
69754;SDS011;57023;52.218;5.158;2022-08-21T04:41:51;14.88;;;8.00;;
69754;SDS011;57023;52.218;5.158;2022-08-21T04:44:17;14.18;;;8.07;;
69754;SDS011;57023;52.218;5.158;2022-08-21T04:46:43;17.80;;;8.00;;
69754;SDS011;57023;52.218;5.158;2022-08-21T04:49:08;16.30;;;8.00;;
69754;SDS011;57023;52.218;5.158;2022-08-21T04:51:34;12.38;;;7.65;;
69754;SDS011;57023;52.218;5.158;2022-08-21T04:54:12;17.02;;;8.68;;
69754;SDS011;57023;52.218;5.158;2022-08-21T04:56:59;14.70;;;8.25;;
69754;SDS011;57023;52.218;5.158;2022-08-21T04:59:30;14.07;;;8.02;;
69754;SDS011;57023;52.218;5.158;2022-08-21T05:01:57;15.32;;;7.72;;
69754;SDS011;57023;52.218;5.158;2022-08-21T05:04:25;14.98;;;8.23;;
69754;SDS011;57023;52.218;5.158;2022-08-21T05:06:53;14.02;;;8.15;;
69754;SDS011;57023;52.218;5.158;2022-08-21T05:09:20;13.77;;;8.48;;
69754;SDS011;57023;52.218;5.158;2022-08-21T05:11:45;14.27;;;8.63;;
69754;SDS011;57023;52.218;5.158;2022-08-21T05:14:11;17.25;;;8.77;;
69754;SDS011;57023;52.218;5.158;2022-08-21T05:16:37;14.45;;;8.68;;
69754;SDS011;57023;52.218;5.158;2022-08-21T05:19:04;15.38;;;8.85;;
69754;SDS011;57023;52.218;5.158;2022-08-21T05:21:30;14.85;;;8.65;;
69754;SDS011;57023;52.218;5.158;2022-08-21T05:23:55;15.52;;;8.95;;
69754;SDS011;57023;52.218;5.158;2022-08-21T05:26:21;17.23;;;8.70;;
69754;SDS011;57023;52.218;5.158;2022-08-21T05:28:46;15.77;;;8.85;;
69754;SDS011;57023;52.218;5.158;2022-08-21T05:31:11;13.25;;;8.18;;
69754;SDS011;57023;52.218;5.158;2022-08-21T05:33:37;16.70;;;8.93;;
69754;SDS011;57023;52.218;5.158;2022-08-21T05:36:02;18.20;;;9.05;;
69754;SDS011;57023;52.218;5.158;2022-08-21T05:38:27;15.82;;;8.65;;
69754;SDS011;57023;52.218;5.158;2022-08-21T05:40:53;18.45;;;8.73;;
69754;SDS011;57023;52.218;5.158;2022-08-21T05:43:18;17.73;;;8.45;;
69754;SDS011;57023;52.218;5.158;2022-08-21T05:45:44;19.60;;;8.55;;
69754;SDS011;57023;52.218;5.158;2022-08-21T05:48:11;14.90;;;8.10;;
69754;SDS011;57023;52.218;5.158;2022-08-21T05:50:46;15.13;;;8.40;;
69754;SDS011;57023;52.218;5.158;2022-08-21T05:53:12;15.93;;;8.38;;
69754;SDS011;57023;52.218;5.158;2022-08-21T05:55:41;15.43;;;7.90;;
69754;SDS011;57023;52.218;5.158;2022-08-21T05:58:06;12.75;;;7.53;;
69754;SDS011;57023;52.218;5.158;2022-08-21T06:00:32;19.80;;;7.90;;
69754;SDS011;57023;52.218;5.158;2022-08-21T06:02:58;15.57;;;7.65;;
69754;SDS011;57023;52.218;5.158;2022-08-21T06:05:24;12.75;;;7.32;;
69754;SDS011;57023;52.218;5.158;2022-08-21T06:07:49;17.38;;;8.02;;
69754;SDS011;57023;52.218;5.158;2022-08-21T06:10:16;14.13;;;8.77;;
69754;SDS011;57023;52.218;5.158;2022-08-21T06:12:41;20.85;;;8.50;;
69754;SDS011;57023;52.218;5.158;2022-08-21T06:15:06;17.63;;;7.95;;
69754;SDS011;57023;52.218;5.158;2022-08-21T06:17:32;16.92;;;8.32;;
69754;SDS011;57023;52.218;5.158;2022-08-21T06:19:57;13.73;;;7.70;;
69754;SDS011;57023;52.218;5.158;2022-08-21T06:22:23;16.17;;;8.50;;
69754;SDS011;57023;52.218;5.158;2022-08-21T06:24:48;14.38;;;8.00;;
69754;SDS011;57023;52.218;5.158;2022-08-21T06:27:14;18.63;;;7.95;;
69754;SDS011;57023;52.218;5.158;2022-08-21T06:29:40;17.48;;;7.93;;
69754;SDS011;57023;52.218;5.158;2022-08-21T06:32:05;16.17;;;8.13;;
69754;SDS011;57023;52.218;5.158;2022-08-21T06:34:37;15.57;;;7.20;;
69754;SDS011;57023;52.218;5.158;2022-08-21T06:37:05;16.00;;;7.10;;
69754;SDS011;57023;52.218;5.158;2022-08-21T06:41:58;16.38;;;6.85;;
69754;SDS011;57023;52.218;5.158;2022-08-21T06:44:24;19.27;;;7.65;;
69754;SDS011;57023;52.218;5.158;2022-08-21T06:46:49;19.17;;;7.50;;
69754;SDS011;57023;52.218;5.158;2022-08-21T06:49:15;17.70;;;7.47;;
69754;SDS011;57023;52.218;5.158;2022-08-21T06:51:40;19.90;;;7.25;;
69754;SDS011;57023;52.218;5.158;2022-08-21T06:54:05;17.02;;;6.75;;
69754;SDS011;57023;52.218;5.158;2022-08-21T06:56:31;17.90;;;7.28;;
69754;SDS011;57023;52.218;5.158;2022-08-21T06:58:58;13.27;;;7.07;;
69754;SDS011;57023;52.218;5.158;2022-08-21T07:01:24;21.67;;;7.65;;
69754;SDS011;57023;52.218;5.158;2022-08-21T07:06:16;13.77;;;5.32;;
69754;SDS011;57023;52.218;5.158;2022-08-21T07:08:42;16.23;;;7.40;;
69754;SDS011;57023;52.218;5.158;2022-08-21T07:11:09;16.70;;;6.97;;
69754;SDS011;57023;52.218;5.158;2022-08-21T07:13:44;17.52;;;7.43;;
69754;SDS011;57023;52.218;5.158;2022-08-21T07:16:09;17.67;;;7.47;;
69754;SDS011;57023;52.218;5.158;2022-08-21T07:18:35;21.02;;;7.75;;
69754;SDS011;57023;52.218;5.158;2022-08-21T07:21:01;21.98;;;7.72;;
69754;SDS011;57023;52.218;5.158;2022-08-21T07:23:29;16.60;;;7.60;;
69754;SDS011;57023;52.218;5.158;2022-08-21T07:25:56;21.17;;;7.93;;
69754;SDS011;57023;52.218;5.158;2022-08-21T07:28:22;16.92;;;6.95;;
69754;SDS011;57023;52.218;5.158;2022-08-21T07:30:50;17.95;;;6.90;;
69754;SDS011;57023;52.218;5.158;2022-08-21T07:33:17;16.60;;;6.85;;
69754;SDS011;57023;52.218;5.158;2022-08-21T07:35:42;17.08;;;6.93;;
69754;SDS011;57023;52.218;5.158;2022-08-21T07:38:07;14.63;;;7.18;;
69754;SDS011;57023;52.218;5.158;2022-08-21T07:40:33;18.92;;;7.43;;
69754;SDS011;57023;52.218;5.158;2022-08-21T07:42:58;14.77;;;5.53;;
69754;SDS011;57023;52.218;5.158;2022-08-21T07:45:23;18.40;;;7.85;;
69754;SDS011;57023;52.218;5.158;2022-08-21T07:47:52;15.32;;;7.72;;
69754;SDS011;57023;52.218;5.158;2022-08-21T07:50:17;15.38;;;7.03;;
69754;SDS011;57023;52.218;5.158;2022-08-21T07:52:43;15.02;;;7.35;;
69754;SDS011;57023;52.218;5.158;2022-08-21T07:55:10;18.52;;;7.15;;
69754;SDS011;57023;52.218;5.158;2022-08-21T07:57:41;17.20;;;7.40;;
69754;SDS011;57023;52.218;5.158;2022-08-21T08:00:08;16.85;;;7.05;;
69754;SDS011;57023;52.218;5.158;2022-08-21T08:02:35;19.00;;;8.45;;
69754;SDS011;57023;52.218;5.158;2022-08-21T08:05:01;16.08;;;7.32;;
69754;SDS011;57023;52.218;5.158;2022-08-21T08:07:28;16.10;;;7.03;;
69754;SDS011;57023;52.218;5.158;2022-08-21T08:09:53;20.02;;;7.43;;
69754;SDS011;57023;52.218;5.158;2022-08-21T08:12:19;17.55;;;8.10;;
69754;SDS011;57023;52.218;5.158;2022-08-21T08:14:45;18.25;;;7.18;;
69754;SDS011;57023;52.218;5.158;2022-08-21T08:17:10;18.95;;;7.25;;
69754;SDS011;57023;52.218;5.158;2022-08-21T08:19:35;21.10;;;7.45;;
69754;SDS011;57023;52.218;5.158;2022-08-21T08:22:01;18.95;;;7.78;;
69754;SDS011;57023;52.218;5.158;2022-08-21T08:24:26;19.90;;;8.27;;
69754;SDS011;57023;52.218;5.158;2022-08-21T08:26:51;17.65;;;8.05;;
69754;SDS011;57023;52.218;5.158;2022-08-21T08:31:44;17.13;;;7.67;;
69754;SDS011;57023;52.218;5.158;2022-08-21T08:34:09;19.45;;;8.55;;
69754;SDS011;57023;52.218;5.158;2022-08-21T08:36:36;13.98;;;8.10;;
69754;SDS011;57023;52.218;5.158;2022-08-21T08:39:02;18.15;;;8.43;;
69754;SDS011;57023;52.218;5.158;2022-08-21T08:41:34;17.73;;;8.60;;
69754;SDS011;57023;52.218;5.158;2022-08-21T08:44:03;14.77;;;7.88;;
69754;SDS011;57023;52.218;5.158;2022-08-21T08:49:16;22.70;;;8.20;;
69754;SDS011;57023;52.218;5.158;2022-08-21T08:51:51;16.70;;;7.85;;
69754;SDS011;57023;52.218;5.158;2022-08-21T08:54:18;16.05;;;8.57;;
69754;SDS011;57023;52.218;5.158;2022-08-21T08:56:49;19.17;;;8.55;;
69754;SDS011;57023;52.218;5.158;2022-08-21T08:59:22;17.63;;;8.38;;
69754;SDS011;57023;52.218;5.158;2022-08-21T09:01:52;17.35;;;7.68;;
69754;SDS011;57023;52.218;5.158;2022-08-21T09:04:20;16.45;;;8.02;;
69754;SDS011;57023;52.218;5.158;2022-08-21T09:09:43;18.20;;;6.82;;
69754;SDS011;57023;52.218;5.158;2022-08-21T09:17:49;18.10;;;8.18;;
69754;SDS011;57023;52.218;5.158;2022-08-21T09:26:25;13.27;;;7.35;;
69754;SDS011;57023;52.218;5.158;2022-08-21T09:28:53;18.73;;;6.80;;
69754;SDS011;57023;52.218;5.158;2022-08-21T09:31:33;19.08;;;8.00;;
69754;SDS011;57023;52.218;5.158;2022-08-21T09:34:00;13.73;;;7.10;;
69754;SDS011;57023;52.218;5.158;2022-08-21T09:36:33;14.85;;;6.95;;
69754;SDS011;57023;52.218;5.158;2022-08-21T09:39:03;15.30;;;7.10;;
69754;SDS011;57023;52.218;5.158;2022-08-21T09:41:30;14.23;;;6.35;;
69754;SDS011;57023;52.218;5.158;2022-08-21T09:43:57;17.52;;;7.07;;
69754;SDS011;57023;52.218;5.158;2022-08-21T09:46:24;14.23;;;6.70;;
69754;SDS011;57023;52.218;5.158;2022-08-21T09:48:51;14.18;;;6.70;;
69754;SDS011;57023;52.218;5.158;2022-08-21T09:51:25;15.65;;;7.05;;
69754;SDS011;57023;52.218;5.158;2022-08-21T09:53:54;11.85;;;5.75;;
69754;SDS011;57023;52.218;5.158;2022-08-21T09:56:34;12.85;;;5.78;;
69754;SDS011;57023;52.218;5.158;2022-08-21T09:59:26;13.10;;;5.60;;
69754;SDS011;57023;52.218;5.158;2022-08-21T10:01:56;10.65;;;4.82;;
69754;SDS011;57023;52.218;5.158;2022-08-21T10:04:27;11.52;;;5.47;;
69754;SDS011;57023;52.218;5.158;2022-08-21T10:06:54;13.63;;;5.72;;
69754;SDS011;57023;52.218;5.158;2022-08-21T10:09:31;12.25;;;5.28;;
69754;SDS011;57023;52.218;5.158;2022-08-21T10:14:39;12.02;;;4.90;;
69754;SDS011;57023;52.218;5.158;2022-08-21T10:25:47;8.98;;;3.70;;
69754;SDS011;57023;52.218;5.158;2022-08-21T10:28:20;11.02;;;4.40;;
69754;SDS011;57023;52.218;5.158;2022-08-21T10:30:56;12.68;;;4.93;;
69754;SDS011;57023;52.218;5.158;2022-08-21T10:36:06;10.35;;;4.28;;
69754;SDS011;57023;52.218;5.158;2022-08-21T10:38:45;12.10;;;4.40;;
69754;SDS011;57023;52.218;5.158;2022-08-21T10:46:20;11.68;;;5.30;;
69754;SDS011;57023;52.218;5.158;2022-08-21T10:51:40;14.68;;;5.50;;
69754;SDS011;57023;52.218;5.158;2022-08-21T10:54:20;13.05;;;5.88;;
69754;SDS011;57023;52.218;5.158;2022-08-21T10:56:51;13.90;;;6.53;;
69754;SDS011;57023;52.218;5.158;2022-08-21T10:59:26;12.88;;;6.13;;
69754;SDS011;57023;52.218;5.158;2022-08-21T11:04:50;14.15;;;6.28;;
69754;SDS011;57023;52.218;5.158;2022-08-21T11:07:54;12.93;;;5.78;;
69754;SDS011;57023;52.218;5.158;2022-08-21T11:10:23;12.80;;;5.45;;
69754;SDS011;57023;52.218;5.158;2022-08-21T11:12:52;10.85;;;5.57;;
69754;SDS011;57023;52.218;5.158;2022-08-21T11:15:27;11.88;;;5.63;;
69754;SDS011;57023;52.218;5.158;2022-08-21T11:18:00;10.20;;;5.47;;
69754;SDS011;57023;52.218;5.158;2022-08-21T11:20:35;10.38;;;5.10;;
69754;SDS011;57023;52.218;5.158;2022-08-21T11:26:15;10.98;;;4.93;;
69754;SDS011;57023;52.218;5.158;2022-08-21T11:29:16;10.30;;;4.10;;
69754;SDS011;57023;52.218;5.158;2022-08-21T11:32:00;10.18;;;3.97;;
69754;SDS011;57023;52.218;5.158;2022-08-21T11:34:56;10.40;;;4.10;;
69754;SDS011;57023;52.218;5.158;2022-08-21T11:37:49;9.80;;;4.28;;
69754;SDS011;57023;52.218;5.158;2022-08-21T11:46:17;12.85;;;4.22;;
69754;SDS011;57023;52.218;5.158;2022-08-21T11:48:51;9.10;;;3.30;;
69754;SDS011;57023;52.218;5.158;2022-08-21T11:56:50;9.63;;;4.53;;
69754;SDS011;57023;52.218;5.158;2022-08-21T11:59:36;11.00;;;4.68;;
69754;SDS011;57023;52.218;5.158;2022-08-21T12:02:07;8.20;;;4.47;;
69754;SDS011;57023;52.218;5.158;2022-08-21T12:04:42;10.80;;;4.80;;
69754;SDS011;57023;52.218;5.158;2022-08-21T12:07:17;11.40;;;5.20;;
69754;SDS011;57023;52.218;5.158;2022-08-21T12:09:54;8.15;;;4.05;;
69754;SDS011;57023;52.218;5.158;2022-08-21T12:14:50;8.43;;;3.60;;
69754;SDS011;57023;52.218;5.158;2022-08-21T12:17:18;8.77;;;3.60;;
69754;SDS011;57023;52.218;5.158;2022-08-21T12:19:45;9.70;;;3.50;;
69754;SDS011;57023;52.218;5.158;2022-08-21T12:22:22;8.88;;;3.20;;
69754;SDS011;57023;52.218;5.158;2022-08-21T12:25:06;8.43;;;3.15;;
69754;SDS011;57023;52.218;5.158;2022-08-21T12:27:46;8.93;;;3.35;;
69754;SDS011;57023;52.218;5.158;2022-08-21T12:30:34;7.28;;;3.13;;
69754;SDS011;57023;52.218;5.158;2022-08-21T12:33:03;8.73;;;3.30;;
69754;SDS011;57023;52.218;5.158;2022-08-21T12:40:55;8.55;;;3.22;;
69754;SDS011;57023;52.218;5.158;2022-08-21T12:43:25;8.07;;;3.30;;
69754;SDS011;57023;52.218;5.158;2022-08-21T12:45:53;9.93;;;3.10;;
69754;SDS011;57023;52.218;5.158;2022-08-21T12:50:53;8.18;;;3.03;;
69754;SDS011;57023;52.218;5.158;2022-08-21T12:55:53;6.90;;;2.75;;
69754;SDS011;57023;52.218;5.158;2022-08-21T12:58:24;9.80;;;3.08;;
69754;SDS011;57023;52.218;5.158;2022-08-21T13:00:57;7.80;;;3.00;;
69754;SDS011;57023;52.218;5.158;2022-08-21T13:03:27;8.75;;;3.28;;
69754;SDS011;57023;52.218;5.158;2022-08-21T13:05:52;8.20;;;3.10;;
69754;SDS011;57023;52.218;5.158;2022-08-21T13:08:19;8.45;;;3.10;;
69754;SDS011;57023;52.218;5.158;2022-08-21T13:10:46;8.48;;;3.17;;
69754;SDS011;57023;52.218;5.158;2022-08-21T13:13:16;7.10;;;3.10;;
69754;SDS011;57023;52.218;5.158;2022-08-21T13:15:45;10.02;;;3.05;;
69754;SDS011;57023;52.218;5.158;2022-08-21T13:18:18;8.85;;;3.25;;
69754;SDS011;57023;52.218;5.158;2022-08-21T13:20:45;8.73;;;3.08;;
69754;SDS011;57023;52.218;5.158;2022-08-21T13:25:50;7.63;;;2.90;;
69754;SDS011;57023;52.218;5.158;2022-08-21T13:28:16;7.35;;;3.10;;
69754;SDS011;57023;52.218;5.158;2022-08-21T13:30:42;8.45;;;3.17;;
69754;SDS011;57023;52.218;5.158;2022-08-21T13:33:15;7.22;;;3.10;;
69754;SDS011;57023;52.218;5.158;2022-08-21T13:38:15;7.60;;;3.25;;
69754;SDS011;57023;52.218;5.158;2022-08-21T13:40:44;6.72;;;2.92;;
69754;SDS011;57023;52.218;5.158;2022-08-21T13:43:15;7.25;;;3.20;;
69754;SDS011;57023;52.218;5.158;2022-08-21T13:45:43;8.00;;;3.15;;
69754;SDS011;57023;52.218;5.158;2022-08-21T13:48:12;7.18;;;3.13;;
69754;SDS011;57023;52.218;5.158;2022-08-21T13:50:38;10.32;;;3.13;;
69754;SDS011;57023;52.218;5.158;2022-08-21T13:53:06;7.28;;;2.97;;
69754;SDS011;57023;52.218;5.158;2022-08-21T13:55:37;10.52;;;3.20;;
69754;SDS011;57023;52.218;5.158;2022-08-21T13:58:07;6.97;;;2.90;;
69754;SDS011;57023;52.218;5.158;2022-08-21T14:03:08;8.75;;;2.90;;
69754;SDS011;57023;52.218;5.158;2022-08-21T14:05:36;10.82;;;3.35;;
69754;SDS011;57023;52.218;5.158;2022-08-21T14:08:04;9.13;;;2.95;;
69754;SDS011;57023;52.218;5.158;2022-08-21T14:10:44;8.80;;;3.28;;
69754;SDS011;57023;52.218;5.158;2022-08-21T14:16:10;8.00;;;3.00;;
69754;SDS011;57023;52.218;5.158;2022-08-21T14:18:49;10.00;;;3.22;;
69754;SDS011;57023;52.218;5.158;2022-08-21T14:21:24;8.30;;;3.30;;
69754;SDS011;57023;52.218;5.158;2022-08-21T14:23:59;9.02;;;3.10;;
69754;SDS011;57023;52.218;5.158;2022-08-21T14:29:20;8.05;;;3.55;;
69754;SDS011;57023;52.218;5.158;2022-08-21T14:31:50;8.90;;;3.50;;
69754;SDS011;57023;52.218;5.158;2022-08-21T14:34:26;12.77;;;3.95;;
69754;SDS011;57023;52.218;5.158;2022-08-21T14:36:52;8.02;;;3.40;;
69754;SDS011;57023;52.218;5.158;2022-08-21T14:39:18;6.88;;;3.03;;
69754;SDS011;57023;52.218;5.158;2022-08-21T14:41:44;9.67;;;3.57;;
69754;SDS011;57023;52.218;5.158;2022-08-21T14:44:11;9.70;;;3.45;;
69754;SDS011;57023;52.218;5.158;2022-08-21T14:46:37;8.00;;;3.33;;
69754;SDS011;57023;52.218;5.158;2022-08-21T14:49:02;16.08;;;3.47;;
69754;SDS011;57023;52.218;5.158;2022-08-21T14:51:28;29.70;;;3.70;;
69754;SDS011;57023;52.218;5.158;2022-08-21T14:53:53;8.90;;;3.40;;
69754;SDS011;57023;52.218;5.158;2022-08-21T14:56:19;8.13;;;3.40;;
69754;SDS011;57023;52.218;5.158;2022-08-21T14:58:45;6.40;;;3.33;;
69754;SDS011;57023;52.218;5.158;2022-08-21T15:01:13;11.52;;;3.65;;
69754;SDS011;57023;52.218;5.158;2022-08-21T15:06:05;8.17;;;3.10;;
69754;SDS011;57023;52.218;5.158;2022-08-21T15:08:34;10.52;;;3.33;;
69754;SDS011;57023;52.218;5.158;2022-08-21T15:11:00;9.23;;;3.30;;
69754;SDS011;57023;52.218;5.158;2022-08-21T15:13:26;10.85;;;3.20;;
69754;SDS011;57023;52.218;5.158;2022-08-21T15:15:52;8.13;;;3.22;;
69754;SDS011;57023;52.218;5.158;2022-08-21T15:18:18;10.37;;;3.30;;
69754;SDS011;57023;52.218;5.158;2022-08-21T15:20:47;10.93;;;3.63;;
69754;SDS011;57023;52.218;5.158;2022-08-21T15:23:12;8.85;;;3.35;;
69754;SDS011;57023;52.218;5.158;2022-08-21T15:25:39;9.27;;;3.70;;
69754;SDS011;57023;52.218;5.158;2022-08-21T15:28:06;9.65;;;3.75;;
69754;SDS011;57023;52.218;5.158;2022-08-21T15:30:36;10.93;;;3.50;;
69754;SDS011;57023;52.218;5.158;2022-08-21T15:33:02;10.68;;;3.88;;
69754;SDS011;57023;52.218;5.158;2022-08-21T15:35:27;9.33;;;3.40;;
69754;SDS011;57023;52.218;5.158;2022-08-21T15:37:53;8.23;;;3.40;;
69754;SDS011;57023;52.218;5.158;2022-08-21T15:40:18;8.50;;;3.47;;
69754;SDS011;57023;52.218;5.158;2022-08-21T15:42:43;8.70;;;3.43;;
69754;SDS011;57023;52.218;5.158;2022-08-21T15:45:10;10.27;;;3.80;;
69754;SDS011;57023;52.218;5.158;2022-08-21T15:47:36;8.43;;;3.20;;
69754;SDS011;57023;52.218;5.158;2022-08-21T15:50:03;9.32;;;3.60;;
69754;SDS011;57023;52.218;5.158;2022-08-21T15:52:30;8.18;;;4.15;;
69754;SDS011;57023;52.218;5.158;2022-08-21T15:54:56;9.13;;;3.50;;
69754;SDS011;57023;52.218;5.158;2022-08-21T15:57:21;8.73;;;3.40;;
69754;SDS011;57023;52.218;5.158;2022-08-21T16:02:24;9.93;;;3.70;;
69754;SDS011;57023;52.218;5.158;2022-08-21T16:04:51;9.50;;;3.80;;
69754;SDS011;57023;52.218;5.158;2022-08-21T16:07:17;10.20;;;3.37;;
69754;SDS011;57023;52.218;5.158;2022-08-21T16:09:42;8.40;;;3.77;;
69754;SDS011;57023;52.218;5.158;2022-08-21T16:12:09;8.23;;;3.67;;
69754;SDS011;57023;52.218;5.158;2022-08-21T16:14:37;8.07;;;3.40;;
69754;SDS011;57023;52.218;5.158;2022-08-21T16:17:06;9.70;;;3.53;;
69754;SDS011;57023;52.218;5.158;2022-08-21T16:19:32;10.52;;;3.25;;
69754;SDS011;57023;52.218;5.158;2022-08-21T16:21:57;8.43;;;3.30;;
69754;SDS011;57023;52.218;5.158;2022-08-21T16:24:22;8.13;;;3.43;;